sensor_id;sensor_type;location;lat;lon;timestamp;pressure;altitude;pressure_sealevel;temperature;humidity
63395;BME280;49531;-34.520;150.798;2023-04-25T00:02:24;102071.91;;;23.72;57.49
63395;BME280;49531;-34.520;150.798;2023-04-25T00:04:52;102064.78;;;23.71;57.67
63395;BME280;49531;-34.520;150.798;2023-04-25T00:07:20;102054.38;;;23.68;57.19
63395;BME280;49531;-34.520;150.798;2023-04-25T00:09:47;102073.53;;;23.73;57.80
63395;BME280;49531;-34.520;150.798;2023-04-25T00:12:14;102046.75;;;23.70;57.36
63395;BME280;49531;-34.520;150.798;2023-04-25T00:14:42;102040.31;;;23.76;57.31
63395;BME280;49531;-34.520;150.798;2023-04-25T00:17:10;102065.09;;;23.91;57.03
63395;BME280;49531;-34.520;150.798;2023-04-25T00:19:37;102059.16;;;23.94;56.85
63395;BME280;49531;-34.520;150.798;2023-04-25T00:22:04;102044.94;;;23.92;56.82
63395;BME280;49531;-34.520;150.798;2023-04-25T00:24:31;102045.00;;;23.98;56.49
63395;BME280;49531;-34.520;150.798;2023-04-25T00:26:59;102043.63;;;24.00;56.39
63395;BME280;49531;-34.520;150.798;2023-04-25T00:29:26;102036.28;;;24.01;56.43
63395;BME280;49531;-34.520;150.798;2023-04-25T00:31:53;102039.16;;;24.11;56.74
63395;BME280;49531;-34.520;150.798;2023-04-25T00:34:20;102043.28;;;24.13;56.26
63395;BME280;49531;-34.520;150.798;2023-04-25T00:36:47;102010.72;;;24.07;55.96
63395;BME280;49531;-34.520;150.798;2023-04-25T00:39:15;102011.09;;;24.15;55.35
63395;BME280;49531;-34.520;150.798;2023-04-25T00:41:43;102005.97;;;24.19;55.28
63395;BME280;49531;-34.520;150.798;2023-04-25T00:44:12;102025.13;;;24.24;55.10
63395;BME280;49531;-34.520;150.798;2023-04-25T00:46:39;102017.56;;;24.26;54.92
63395;BME280;49531;-34.520;150.798;2023-04-25T00:49:07;102003.28;;;24.24;55.01
63395;BME280;49531;-34.520;150.798;2023-04-25T00:51:34;102012.66;;;24.28;54.25
63395;BME280;49531;-34.520;150.798;2023-04-25T00:54:02;102004.47;;;24.28;54.03
63395;BME280;49531;-34.520;150.798;2023-04-25T00:56:29;102014.38;;;24.34;54.30
63395;BME280;49531;-34.520;150.798;2023-04-25T00:58:57;102004.59;;;24.38;54.53
63395;BME280;49531;-34.520;150.798;2023-04-25T01:01:24;101994.50;;;24.39;54.13
63395;BME280;49531;-34.520;150.798;2023-04-25T01:03:54;101982.75;;;24.38;54.37
63395;BME280;49531;-34.520;150.798;2023-04-25T01:06:21;101988.25;;;24.43;54.09
63395;BME280;49531;-34.520;150.798;2023-04-25T01:08:48;101985.81;;;24.47;53.75
63395;BME280;49531;-34.520;150.798;2023-04-25T01:11:16;101983.41;;;24.50;53.87
63395;BME280;49531;-34.520;150.798;2023-04-25T01:13:44;101983.97;;;24.52;53.55
63395;BME280;49531;-34.520;150.798;2023-04-25T01:16:11;101973.88;;;24.53;53.44
63395;BME280;49531;-34.520;150.798;2023-04-25T01:18:40;101969.22;;;24.53;53.18
63395;BME280;49531;-34.520;150.798;2023-04-25T01:21:09;101972.03;;;24.58;53.04
63395;BME280;49531;-34.520;150.798;2023-04-25T01:23:39;101968.78;;;24.62;53.47
63395;BME280;49531;-34.520;150.798;2023-04-25T01:26:08;101957.28;;;24.59;53.03
63395;BME280;49531;-34.520;150.798;2023-04-25T01:28:37;101946.88;;;24.56;53.13
63395;BME280;49531;-34.520;150.798;2023-04-25T01:31:04;101945.59;;;24.64;53.21
63395;BME280;49531;-34.520;150.798;2023-04-25T01:33:32;101943.69;;;24.65;52.63
63395;BME280;49531;-34.520;150.798;2023-04-25T01:35:59;101928.09;;;24.65;52.97
63395;BME280;49531;-34.520;150.798;2023-04-25T01:38:26;101931.72;;;24.71;53.10
63395;BME280;49531;-34.520;150.798;2023-04-25T01:40:54;101918.06;;;24.71;52.42
63395;BME280;49531;-34.520;150.798;2023-04-25T01:43:22;101901.03;;;24.64;52.69
63395;BME280;49531;-34.520;150.798;2023-04-25T01:45:50;101892.03;;;24.63;52.99
63395;BME280;49531;-34.520;150.798;2023-04-25T01:48:17;101900.56;;;24.72;52.69
63395;BME280;49531;-34.520;150.798;2023-04-25T01:50:45;101903.88;;;24.74;52.49
63395;BME280;49531;-34.520;150.798;2023-04-25T01:53:13;101890.78;;;24.76;52.28
63395;BME280;49531;-34.520;150.798;2023-04-25T01:55:41;101879.78;;;24.71;52.21
63395;BME280;49531;-34.520;150.798;2023-04-25T01:58:08;101886.41;;;24.80;52.80
63395;BME280;49531;-34.520;150.798;2023-04-25T02:00:36;101867.25;;;24.75;52.27
63395;BME280;49531;-34.520;150.798;2023-04-25T02:03:05;101874.13;;;24.82;52.13
63395;BME280;49531;-34.520;150.798;2023-04-25T02:05:36;101871.69;;;24.86;51.95
63395;BME280;49531;-34.520;150.798;2023-04-25T02:08:06;101865.66;;;24.84;52.37
63395;BME280;49531;-34.520;150.798;2023-04-25T02:10:34;101869.81;;;24.91;52.46
63395;BME280;49531;-34.520;150.798;2023-04-25T02:13:01;101864.09;;;24.93;52.10
63395;BME280;49531;-34.520;150.798;2023-04-25T02:15:29;101858.06;;;24.91;52.05
63395;BME280;49531;-34.520;150.798;2023-04-25T02:17:57;101843.28;;;24.87;51.70
63395;BME280;49531;-34.520;150.798;2023-04-25T02:20:27;101830.13;;;24.79;51.64
63395;BME280;49531;-34.520;150.798;2023-04-25T02:22:54;101820.50;;;24.71;51.63
63395;BME280;49531;-34.520;150.798;2023-04-25T02:25:23;101822.97;;;24.73;51.94
63395;BME280;49531;-34.520;150.798;2023-04-25T02:27:51;101817.22;;;24.69;51.87
63395;BME280;49531;-34.520;150.798;2023-04-25T02:30:18;101813.75;;;24.79;51.83
63395;BME280;49531;-34.520;150.798;2023-04-25T02:32:45;101815.88;;;24.72;52.03
63395;BME280;49531;-34.520;150.798;2023-04-25T02:35:13;101802.69;;;24.64;52.25
63395;BME280;49531;-34.520;150.798;2023-04-25T02:37:40;101807.66;;;24.72;51.94
63395;BME280;49531;-34.520;150.798;2023-04-25T02:40:08;101796.19;;;24.70;52.23
63395;BME280;49531;-34.520;150.798;2023-04-25T02:42:35;101784.16;;;24.71;51.50
63395;BME280;49531;-34.520;150.798;2023-04-25T02:45:02;101788.59;;;24.82;51.47
63395;BME280;49531;-34.520;150.798;2023-04-25T02:47:31;101773.03;;;24.87;51.53
63395;BME280;49531;-34.520;150.798;2023-04-25T02:49:58;101769.22;;;24.88;51.24
63395;BME280;49531;-34.520;150.798;2023-04-25T02:52:25;101764.59;;;24.89;51.16
63395;BME280;49531;-34.520;150.798;2023-04-25T02:54:52;101752.78;;;24.78;51.43
63395;BME280;49531;-34.520;150.798;2023-04-25T02:57:20;101753.91;;;24.87;51.66
63395;BME280;49531;-34.520;150.798;2023-04-25T02:59:47;101757.44;;;24.83;50.91
63395;BME280;49531;-34.520;150.798;2023-04-25T03:02:14;101738.84;;;24.75;51.42
63395;BME280;49531;-34.520;150.798;2023-04-25T03:04:41;101732.28;;;24.76;51.29
63395;BME280;49531;-34.520;150.798;2023-04-25T03:07:09;101733.38;;;24.80;51.29
63395;BME280;49531;-34.520;150.798;2023-04-25T03:09:36;101734.50;;;24.84;51.39
63395;BME280;49531;-34.520;150.798;2023-04-25T03:12:03;101715.84;;;24.71;51.38
63395;BME280;49531;-34.520;150.798;2023-04-25T03:14:31;101717.53;;;24.77;51.77
63395;BME280;49531;-34.520;150.798;2023-04-25T03:16:58;101713.16;;;24.81;51.80
63395;BME280;49531;-34.520;150.798;2023-04-25T03:19:26;101722.16;;;24.81;51.32
63395;BME280;49531;-34.520;150.798;2023-04-25T03:21:53;101710.97;;;24.83;51.10
63395;BME280;49531;-34.520;150.798;2023-04-25T03:24:20;101715.09;;;24.85;51.41
63395;BME280;49531;-34.520;150.798;2023-04-25T03:26:48;101707.69;;;24.81;51.68
63395;BME280;49531;-34.520;150.798;2023-04-25T03:29:15;101703.88;;;24.77;51.68
63395;BME280;49531;-34.520;150.798;2023-04-25T03:31:42;101696.19;;;24.74;52.25
63395;BME280;49531;-34.520;150.798;2023-04-25T03:34:09;101695.09;;;24.80;52.06
63395;BME280;49531;-34.520;150.798;2023-04-25T03:36:36;101694.88;;;24.86;52.02
63395;BME280;49531;-34.520;150.798;2023-04-25T03:39:03;101694.91;;;24.91;52.25
63395;BME280;49531;-34.520;150.798;2023-04-25T03:41:31;101700.91;;;24.88;52.31
63395;BME280;49531;-34.520;150.798;2023-04-25T03:43:58;101690.31;;;24.97;52.63
63395;BME280;49531;-34.520;150.798;2023-04-25T03:46:25;101692.72;;;24.93;52.35
63395;BME280;49531;-34.520;150.798;2023-04-25T03:48:52;101681.50;;;24.90;52.69
63395;BME280;49531;-34.520;150.798;2023-04-25T03:51:19;101688.66;;;24.96;52.27
63395;BME280;49531;-34.520;150.798;2023-04-25T03:53:47;101690.88;;;24.99;52.45
63395;BME280;49531;-34.520;150.798;2023-04-25T03:56:15;101682.88;;;24.92;52.62
63395;BME280;49531;-34.520;150.798;2023-04-25T03:58:42;101684.53;;;24.93;52.69
63395;BME280;49531;-34.520;150.798;2023-04-25T04:01:09;101678.22;;;24.93;52.93
63395;BME280;49531;-34.520;150.798;2023-04-25T04:03:37;101690.31;;;24.97;53.23
63395;BME280;49531;-34.520;150.798;2023-04-25T04:06:05;101684.53;;;24.93;53.14
63395;BME280;49531;-34.520;150.798;2023-04-25T04:08:33;101683.50;;;25.00;53.13
63395;BME280;49531;-34.520;150.798;2023-04-25T04:11:00;101680.19;;;24.98;52.86
63395;BME280;49531;-34.520;150.798;2023-04-25T04:13:28;101671.94;;;24.92;53.02
63395;BME280;49531;-34.520;150.798;2023-04-25T04:15:55;101679.41;;;25.02;52.59
63395;BME280;49531;-34.520;150.798;2023-04-25T04:18:23;101672.28;;;25.01;52.62
63395;BME280;49531;-34.520;150.798;2023-04-25T04:20:50;101678.88;;;25.05;52.77
63395;BME280;49531;-34.520;150.798;2023-04-25T04:23:19;101662.97;;;24.97;53.08
63395;BME280;49531;-34.520;150.798;2023-04-25T04:25:48;101652.53;;;24.89;52.76
63395;BME280;49531;-34.520;150.798;2023-04-25T04:28:16;101664.88;;;24.97;52.79
63395;BME280;49531;-34.520;150.798;2023-04-25T04:30:44;101636.94;;;24.84;52.60
63395;BME280;49531;-34.520;150.798;2023-04-25T04:33:13;101671.19;;;25.02;53.05
63395;BME280;49531;-34.520;150.798;2023-04-25T04:35:41;101667.91;;;25.00;53.01
63395;BME280;49531;-34.520;150.798;2023-04-25T04:38:09;101672.28;;;25.01;53.09
63395;BME280;49531;-34.520;150.798;2023-04-25T04:40:37;101673.13;;;25.07;52.92
63395;BME280;49531;-34.520;150.798;2023-04-25T04:43:04;101651.72;;;24.93;52.79
63395;BME280;49531;-34.520;150.798;2023-04-25T04:45:32;101674.22;;;25.06;52.98
63395;BME280;49531;-34.520;150.798;2023-04-25T04:47:59;101676.69;;;25.07;52.81
63395;BME280;49531;-34.520;150.798;2023-04-25T04:50:26;101657.50;;;24.97;53.27
63395;BME280;49531;-34.520;150.798;2023-04-25T04:52:54;101679.97;;;25.04;52.89
63395;BME280;49531;-34.520;150.798;2023-04-25T04:55:22;101672.28;;;25.01;53.38
63395;BME280;49531;-34.520;150.798;2023-04-25T04:57:50;101671.19;;;24.97;53.21
63395;BME280;49531;-34.520;150.798;2023-04-25T05:00:17;101669.81;;;25.00;53.06
63395;BME280;49531;-34.520;150.798;2023-04-25T05:02:44;101669.81;;;25.00;53.33
63395;BME280;49531;-34.520;150.798;2023-04-25T05:05:11;101668.44;;;24.97;53.50
63395;BME280;49531;-34.520;150.798;2023-04-25T05:07:39;101666.53;;;24.98;53.26
63395;BME280;49531;-34.520;150.798;2023-04-25T05:10:06;101662.97;;;24.97;53.47
63395;BME280;49531;-34.520;150.798;2023-04-25T05:12:34;101668.47;;;25.02;53.61
63395;BME280;49531;-34.520;150.798;2023-04-25T05:15:01;101670.94;;;25.04;53.79
63395;BME280;49531;-34.520;150.798;2023-04-25T05:17:28;101672.59;;;25.05;53.59
63395;BME280;49531;-34.520;150.798;2023-04-25T05:19:55;101651.44;;;24.90;53.89
63395;BME280;49531;-34.520;150.798;2023-04-25T05:22:23;101668.47;;;25.02;53.69
63395;BME280;49531;-34.520;150.798;2023-04-25T05:24:50;101658.34;;;24.98;53.96
63395;BME280;49531;-34.520;150.798;2023-04-25T05:27:19;101658.06;;;24.99;53.80
63395;BME280;49531;-34.520;150.798;2023-04-25T05:29:47;101670.13;;;25.08;53.64
63395;BME280;49531;-34.520;150.798;2023-04-25T05:32:14;101663.56;;;25.04;53.52
63395;BME280;49531;-34.520;150.798;2023-04-25T05:34:41;101664.88;;;24.97;54.08
63395;BME280;49531;-34.520;150.798;2023-04-25T05:37:09;101662.97;;;24.97;53.70
63395;BME280;49531;-34.520;150.798;2023-04-25T05:39:36;101650.13;;;24.98;53.68
63395;BME280;49531;-34.520;150.798;2023-04-25T05:42:03;101652.00;;;24.92;53.86
63395;BME280;49531;-34.520;150.798;2023-04-25T05:44:31;101638.59;;;24.90;53.70
63395;BME280;49531;-34.520;150.798;2023-04-25T05:46:58;101646.53;;;24.92;53.89
63395;BME280;49531;-34.520;150.798;2023-04-25T05:49:25;101658.06;;;24.99;53.68
63395;BME280;49531;-34.520;150.798;2023-04-25T05:51:52;101641.59;;;24.89;53.88
63395;BME280;49531;-34.520;150.798;2023-04-25T05:54:19;101661.00;;;24.92;54.06
63395;BME280;49531;-34.520;150.798;2023-04-25T05:56:46;101641.84;;;24.87;54.10
63395;BME280;49531;-34.520;150.798;2023-04-25T05:59:14;101654.69;;;24.87;54.02
63395;BME280;49531;-34.520;150.798;2023-04-25T06:01:42;101663.81;;;24.98;54.10
63395;BME280;49531;-34.520;150.798;2023-04-25T06:04:09;101653.91;;;24.91;54.04
63395;BME280;49531;-34.520;150.798;2023-04-25T06:06:36;101660.47;;;24.90;53.87
63395;BME280;49531;-34.520;150.798;2023-04-25T06:09:03;101668.13;;;24.93;53.94
63395;BME280;49531;-34.520;150.798;2023-04-25T06:11:30;101672.81;;;24.98;54.15
63395;BME280;49531;-34.520;150.798;2023-04-25T06:13:58;101674.72;;;24.98;54.17
63395;BME280;49531;-34.520;150.798;2023-04-25T06:16:25;101673.59;;;24.93;53.68
63395;BME280;49531;-34.520;150.798;2023-04-25T06:18:52;101687.59;;;24.97;53.85
63395;BME280;49531;-34.520;150.798;2023-04-25T06:21:19;101680.97;;;24.93;53.77
63395;BME280;49531;-34.520;150.798;2023-04-25T06:23:46;101679.31;;;24.92;53.20
63395;BME280;49531;-34.520;150.798;2023-04-25T06:26:13;101669.19;;;24.87;53.61
63395;BME280;49531;-34.520;150.798;2023-04-25T06:28:40;101683.16;;;24.91;53.48
63395;BME280;49531;-34.520;150.798;2023-04-25T06:31:08;101689.97;;;24.88;53.42
63395;BME280;49531;-34.520;150.798;2023-04-25T06:33:36;101691.88;;;24.88;53.70
63395;BME280;49531;-34.520;150.798;2023-04-25T06:36:03;101670.53;;;24.85;53.50
63395;BME280;49531;-34.520;150.798;2023-04-25T06:38:31;101674.38;;;24.84;53.52
63395;BME280;49531;-34.520;150.798;2023-04-25T06:40:58;101686.41;;;24.88;53.44
63395;BME280;49531;-34.520;150.798;2023-04-25T06:43:25;101687.75;;;24.85;53.55
63395;BME280;49531;-34.520;150.798;2023-04-25T06:45:52;101684.22;;;24.85;53.55
63395;BME280;49531;-34.520;150.798;2023-04-25T06:48:19;101680.63;;;24.74;53.44
63395;BME280;49531;-34.520;150.798;2023-04-25T06:50:46;101683.91;;;24.76;53.57
63395;BME280;49531;-34.520;150.798;2023-04-25T06:53:13;101691.84;;;24.78;53.52
63395;BME280;49531;-34.520;150.798;2023-04-25T06:55:41;101699.50;;;24.76;53.25
63395;BME280;49531;-34.520;150.798;2023-04-25T06:58:08;101687.16;;;24.68;53.34
63395;BME280;49531;-34.520;150.798;2023-04-25T07:00:35;101701.66;;;24.74;53.12
63395;BME280;49531;-34.520;150.798;2023-04-25T07:03:03;101709.31;;;24.72;53.59
63395;BME280;49531;-34.520;150.798;2023-04-25T07:05:30;101714.69;;;24.62;53.40
63395;BME280;49531;-34.520;150.798;2023-04-25T07:07:57;101723.75;;;24.67;53.28
63395;BME280;49531;-34.520;150.798;2023-04-25T07:10:24;101701.28;;;24.55;53.65
63395;BME280;49531;-34.520;150.798;2023-04-25T07:12:52;101722.91;;;24.62;53.71
63395;BME280;49531;-34.520;150.798;2023-04-25T07:15:19;101722.03;;;24.56;53.51
63395;BME280;49531;-34.520;150.798;2023-04-25T07:17:47;101729.06;;;24.47;53.17
63395;BME280;49531;-34.520;150.798;2023-04-25T07:20:14;101735.31;;;24.37;53.55
63395;BME280;49531;-34.520;150.798;2023-04-25T07:22:42;101730.84;;;24.26;53.77
63395;BME280;49531;-34.520;150.798;2023-04-25T07:25:10;101730.25;;;24.24;53.90
63395;BME280;49531;-34.520;150.798;2023-04-25T07:27:37;101735.78;;;24.29;53.81
63395;BME280;49531;-34.520;150.798;2023-04-25T07:30:06;101737.78;;;24.39;53.51
63395;BME280;49531;-34.520;150.798;2023-04-25T07:32:33;101748.97;;;24.42;53.46
63395;BME280;49531;-34.520;150.798;2023-04-25T07:35:00;101744.91;;;24.45;53.36
63395;BME280;49531;-34.520;150.798;2023-04-25T07:37:29;101751.44;;;24.44;53.53
63395;BME280;49531;-34.520;150.798;2023-04-25T07:39:56;101738.63;;;24.44;53.50
63395;BME280;49531;-34.520;150.798;2023-04-25T07:42:23;101753.97;;;24.50;53.40
63395;BME280;49531;-34.520;150.798;2023-04-25T07:44:50;101753.13;;;24.50;53.13
63395;BME280;49531;-34.520;150.798;2023-04-25T07:47:18;101764.91;;;24.55;53.15
63395;BME280;49531;-34.520;150.798;2023-04-25T07:49:46;101754.78;;;24.51;53.46
63395;BME280;49531;-34.520;150.798;2023-04-25T07:52:13;101755.56;;;24.46;53.45
63395;BME280;49531;-34.520;150.798;2023-04-25T07:54:40;101753.91;;;24.45;53.47
63395;BME280;49531;-34.520;150.798;2023-04-25T07:57:08;101767.88;;;24.49;53.81
63395;BME280;49531;-34.520;150.798;2023-04-25T07:59:35;101776.88;;;24.49;53.62
63395;BME280;49531;-34.520;150.798;2023-04-25T08:02:02;101771.69;;;24.48;53.84
63395;BME280;49531;-34.520;150.798;2023-04-25T08:04:29;101776.06;;;24.49;53.41
63395;BME280;49531;-34.520;150.798;2023-04-25T08:06:56;101779.63;;;24.49;53.28
63395;BME280;49531;-34.520;150.798;2023-04-25T08:09:24;101779.31;;;24.46;53.53
63395;BME280;49531;-34.520;150.798;2023-04-25T08:11:51;101781.47;;;24.44;53.56
63395;BME280;49531;-34.520;150.798;2023-04-25T08:14:21;101779.53;;;24.39;53.64
63395;BME280;49531;-34.520;150.798;2023-04-25T08:16:48;101778.19;;;24.42;53.61
63395;BME280;49531;-34.520;150.798;2023-04-25T08:19:15;101780.09;;;24.36;53.73
63395;BME280;49531;-34.520;150.798;2023-04-25T08:21:42;101783.91;;;24.40;53.48
63395;BME280;49531;-34.520;150.798;2023-04-25T08:24:09;101782.28;;;24.39;53.39
63395;BME280;49531;-34.520;150.798;2023-04-25T08:26:36;101778.13;;;24.32;53.40
63395;BME280;49531;-34.520;150.798;2023-04-25T08:29:04;101784.69;;;24.31;53.65
63395;BME280;49531;-34.520;150.798;2023-04-25T08:31:32;101795.91;;;24.39;53.42
63395;BME280;49531;-34.520;150.798;2023-04-25T08:33:59;101813.41;;;24.38;53.65
63395;BME280;49531;-34.520;150.798;2023-04-25T08:36:26;101791.75;;;24.26;53.76
63395;BME280;49531;-34.520;150.798;2023-04-25T08:38:54;101815.59;;;24.41;53.49
63395;BME280;49531;-34.520;150.798;2023-04-25T08:41:22;101824.06;;;24.40;53.75
63395;BME280;49531;-34.520;150.798;2023-04-25T08:43:50;101819.72;;;24.39;53.76
63395;BME280;49531;-34.520;150.798;2023-04-25T08:46:18;101825.44;;;24.37;53.57
63395;BME280;49531;-34.520;150.798;2023-04-25T08:48:46;101823.22;;;24.34;53.61
63395;BME280;49531;-34.520;150.798;2023-04-25T08:51:22;101793.78;;;24.14;53.89
63395;BME280;49531;-34.520;150.798;2023-04-25T08:53:54;101816.22;;;24.21;53.83
63395;BME280;49531;-34.520;150.798;2023-04-25T08:56:23;101812.69;;;24.21;53.81
63395;BME280;49531;-34.520;150.798;2023-04-25T08:58:51;101818.13;;;24.21;53.84
63395;BME280;49531;-34.520;150.798;2023-04-25T09:01:18;101832.03;;;24.19;53.80
63395;BME280;49531;-34.520;150.798;2023-04-25T09:03:45;101836.16;;;24.22;53.86
63395;BME280;49531;-34.520;150.798;2023-04-25T09:06:13;101832.88;;;24.20;53.74
63395;BME280;49531;-34.520;150.798;2023-04-25T09:08:42;101817.53;;;24.14;53.74
63395;BME280;49531;-34.520;150.798;2023-04-25T09:11:10;101827.91;;;24.17;53.52
63395;BME280;49531;-34.520;150.798;2023-04-25T09:13:37;101823.75;;;24.09;53.50
63395;BME280;49531;-34.520;150.798;2023-04-25T09:16:04;101829.53;;;24.13;53.49
63395;BME280;49531;-34.520;150.798;2023-04-25T09:18:33;101834.41;;;24.11;53.84
63395;BME280;49531;-34.520;150.798;2023-04-25T09:21:07;101842.84;;;24.09;53.86
63395;BME280;49531;-34.520;150.798;2023-04-25T09:23:41;101835.19;;;24.06;53.82
63395;BME280;49531;-34.520;150.798;2023-04-25T09:26:08;101841.72;;;24.05;53.58
63395;BME280;49531;-34.520;150.798;2023-04-25T09:28:36;101840.63;;;24.06;53.51
63395;BME280;49531;-34.520;150.798;2023-04-25T09:31:04;101840.84;;;24.00;53.60
63395;BME280;49531;-34.520;150.798;2023-04-25T09:33:32;101841.41;;;24.02;53.74
63395;BME280;49531;-34.520;150.798;2023-04-25T09:36:09;101837.00;;;23.96;53.94
63395;BME280;49531;-34.520;150.798;2023-04-25T09:38:42;101840.56;;;23.96;53.78
63395;BME280;49531;-34.520;150.798;2023-04-25T09:41:11;101838.84;;;23.90;53.95
63395;BME280;49531;-34.520;150.798;2023-04-25T09:43:39;101822.94;;;23.82;53.98
63395;BME280;49531;-34.520;150.798;2023-04-25T09:46:10;101843.78;;;23.93;53.73
63395;BME280;49531;-34.520;150.798;2023-04-25T09:48:38;101837.13;;;23.84;53.88
63395;BME280;49531;-34.520;150.798;2023-04-25T09:51:11;101847.28;;;23.88;54.14
63395;BME280;49531;-34.520;150.798;2023-04-25T09:53:42;101853.81;;;23.87;54.12
63395;BME280;49531;-34.520;150.798;2023-04-25T09:56:11;101850.53;;;23.85;54.06
63395;BME280;49531;-34.520;150.798;2023-04-25T09:58:42;101838.41;;;23.76;53.79
63395;BME280;49531;-34.520;150.798;2023-04-25T10:01:10;101856.50;;;23.82;54.17
63395;BME280;49531;-34.520;150.798;2023-04-25T10:03:39;101857.00;;;23.79;53.99
63395;BME280;49531;-34.520;150.798;2023-04-25T10:06:11;101841.31;;;23.70;54.15
63395;BME280;49531;-34.520;150.798;2023-04-25T10:08:39;101852.38;;;23.80;54.10
63395;BME280;49531;-34.520;150.798;2023-04-25T10:11:08;101858.06;;;23.78;54.08
63395;BME280;49531;-34.520;150.798;2023-04-25T10:13:36;101859.66;;;23.74;54.39
63395;BME280;49531;-34.520;150.798;2023-04-25T10:16:05;101867.28;;;23.72;54.03
63395;BME280;49531;-34.520;150.798;2023-04-25T10:18:33;101850.28;;;23.65;54.53
63395;BME280;49531;-34.520;150.798;2023-04-25T10:21:02;101873.81;;;23.71;54.59
63395;BME280;49531;-34.520;150.798;2023-04-25T10:23:31;101870.50;;;23.69;54.20
63395;BME280;49531;-34.520;150.798;2023-04-25T10:26:00;101864.66;;;23.60;54.61
63395;BME280;49531;-34.520;150.798;2023-04-25T10:28:28;101850.91;;;23.50;54.36
63395;BME280;49531;-34.520;150.798;2023-04-25T10:31:01;101867.41;;;23.60;54.41
63395;BME280;49531;-34.520;150.798;2023-04-25T10:33:35;101862.72;;;23.56;54.90
63395;BME280;49531;-34.520;150.798;2023-04-25T10:36:13;101863.22;;;23.53;54.74
63395;BME280;49531;-34.520;150.798;2023-04-25T10:38:43;101873.69;;;23.61;54.52
63395;BME280;49531;-34.520;150.798;2023-04-25T10:41:11;101879.13;;;23.61;54.52
63395;BME280;49531;-34.520;150.798;2023-04-25T10:43:43;101879.13;;;23.61;54.52
63395;BME280;49531;-34.520;150.798;2023-04-25T10:46:19;101879.13;;;23.61;54.32
63395;BME280;49531;-34.520;150.798;2023-04-25T10:48:54;101878.84;;;23.57;54.66
63395;BME280;49531;-34.520;150.798;2023-04-25T10:51:27;101883.47;;;23.57;54.69
63395;BME280;49531;-34.520;150.798;2023-04-25T10:54:01;101875.69;;;23.49;54.56
63395;BME280;49531;-34.520;150.798;2023-04-25T10:56:32;101881.00;;;23.55;54.58
63395;BME280;49531;-34.520;150.798;2023-04-25T10:59:04;101866.63;;;23.43;54.87
63395;BME280;49531;-34.520;150.798;2023-04-25T11:01:38;101877.69;;;23.53;54.57
63395;BME280;49531;-34.520;150.798;2023-04-25T11:04:18;101884.19;;;23.52;54.79
63395;BME280;49531;-34.520;150.798;2023-04-25T11:07:00;101882.22;;;23.48;54.89
63395;BME280;49531;-34.520;150.798;2023-04-25T11:09:30;101889.91;;;23.51;54.60
63395;BME280;49531;-34.520;150.798;2023-04-25T11:12:00;101888.25;;;23.50;54.89
63395;BME280;49531;-34.520;150.798;2023-04-25T11:14:27;101888.44;;;23.43;54.64
63395;BME280;49531;-34.520;150.798;2023-04-25T11:16:56;101886.53;;;23.44;54.64
63395;BME280;49531;-34.520;150.798;2023-04-25T11:19:25;101885.94;;;23.42;54.98
63395;BME280;49531;-34.520;150.798;2023-04-25T11:21:57;101875.72;;;23.32;54.88
63395;BME280;49531;-34.520;150.798;2023-04-25T11:24:29;101876.53;;;23.33;55.09
63395;BME280;49531;-34.520;150.798;2023-04-25T11:26:58;101880.94;;;23.34;54.78
63395;BME280;49531;-34.520;150.798;2023-04-25T11:29:27;101891.91;;;23.39;55.15
63395;BME280;49531;-34.520;150.798;2023-04-25T11:31:55;101864.09;;;23.20;54.93
63395;BME280;49531;-34.520;150.798;2023-04-25T11:34:29;101879.53;;;23.31;54.77
63395;BME280;49531;-34.520;150.798;2023-04-25T11:36:57;101892.06;;;23.32;54.91
63395;BME280;49531;-34.520;150.798;2023-04-25T11:39:25;101878.28;;;23.22;55.08
63395;BME280;49531;-34.520;150.798;2023-04-25T11:41:54;101876.41;;;23.22;55.28
63395;BME280;49531;-34.520;150.798;2023-04-25T11:44:22;101870.38;;;23.20;55.20
63395;BME280;49531;-34.520;150.798;2023-04-25T11:46:49;101886.78;;;23.25;55.08
63395;BME280;49531;-34.520;150.798;2023-04-25T11:49:17;101881.03;;;23.22;55.14
63395;BME280;49531;-34.520;150.798;2023-04-25T11:51:47;101893.31;;;23.24;55.20
63395;BME280;49531;-34.520;150.798;2023-04-25T11:54:15;101884.81;;;23.21;55.16
63395;BME280;49531;-34.520;150.798;2023-04-25T11:56:44;101891.09;;;23.21;54.91
63395;BME280;49531;-34.520;150.798;2023-04-25T11:59:12;101876.84;;;23.14;55.24
63395;BME280;49531;-34.520;150.798;2023-04-25T12:01:41;101879.56;;;23.14;55.16
63395;BME280;49531;-34.520;150.798;2023-04-25T12:04:21;101887.16;;;23.12;55.53
63395;BME280;49531;-34.520;150.798;2023-04-25T12:06:50;101870.66;;;23.02;55.10
63395;BME280;49531;-34.520;150.798;2023-04-25T12:09:20;101865.28;;;23.07;55.31
63395;BME280;49531;-34.520;150.798;2023-04-25T12:11:55;101877.34;;;23.11;55.14
63395;BME280;49531;-34.520;150.798;2023-04-25T12:14:28;101881.13;;;23.10;55.18
63395;BME280;49531;-34.520;150.798;2023-04-25T12:16:56;101880.56;;;23.08;55.23
63395;BME280;49531;-34.520;150.798;2023-04-25T12:19:24;101876.69;;;23.04;55.30
63395;BME280;49531;-34.520;150.798;2023-04-25T12:21:52;101881.38;;;23.09;55.30
63395;BME280;49531;-34.520;150.798;2023-04-25T12:24:24;101863.22;;;22.98;55.23
63395;BME280;49531;-34.520;150.798;2023-04-25T12:27:02;101857.53;;;22.99;55.27